Terminal Aerodrome Forecast
Issued by NWS

Home | Current Version | Previous Version | Text Only | Print | Product List | Glossary On
Versions: 1 2 3 4 5 6 7 8 9 10 11 12 13 14
956
FTUS43 KSGF 111135
TAFJLN
TAF
KJLN 111135Z 1112/1212 03008KT P6SM SCT250
     FM111800 06008KT P6SM SCT250
     FM120000 08006KT P6SM BKN250=

USA.gov is the U.S. government's official web portal to all federal, state and local government web resources and services.